Time;durP1;ratioP1;P1;durP2;ratioP2;P2;SDS_P1;SDS_P2;PMS_P1;PMS_P2;Temp;Humidity;BMP_temperature;BMP_pressure;BME280_temperature;BME280_humidity;BME280_pressure;Samples;Min_cycle;Max_cycle;Signal;HPM_P1;HPM_P2
2023/04/08 00:01:06;;;;;;;0.20;0.20;;;7.20;99.90;;;;;;5001834;28;20046;-64
2023/04/08 00:03:31;;;;;;;0.30;0.30;;;7.10;99.90;;;;;;5007221;28;20046;-64
2023/04/08 00:05:57;;;;;;;0.22;0.22;;;7.10;99.90;;;;;;5008672;28;20046;-64
2023/04/08 00:08:23;;;;;;;0.10;0.10;;;7.10;99.90;;;;;;5000254;28;21008;-64
2023/04/08 00:10:48;;;;;;;0.15;0.15;;;7.10;99.90;;;;;;5007504;28;20061;-64
2023/04/08 00:13:14;;;;;;;0.30;0.30;;;7.00;99.90;;;;;;4999565;28;20038;-64
2023/04/08 00:15:40;;;;;;;1.75;1.00;;;6.90;99.90;;;;;;5010724;28;20053;-64
2023/04/08 00:18:07;;;;;;;0.10;0.10;;;6.90;99.90;;;;;;5012181;28;20042;-64
2023/04/08 00:20:32;;;;;;;0.20;0.20;;;6.90;99.90;;;;;;4998160;28;20042;-64
2023/04/08 00:22:58;;;;;;;0.65;0.65;;;6.90;99.90;;;;;;5008126;28;20096;-64
2023/04/08 00:25:23;;;;;;;1.48;1.38;;;6.90;99.90;;;;;;4997913;28;20084;-64
2023/04/08 00:27:49;;;;;;;0.10;0.10;;;6.80;99.90;;;;;;4996369;28;20038;-64
2023/04/08 00:30:15;;;;;;;0.10;0.10;;;6.80;99.90;;;;;;5010055;28;20038;-64
2023/04/08 00:32:40;;;;;;;0.10;0.10;;;6.80;99.90;;;;;;5010458;28;20046;-64
2023/04/08 00:35:06;;;;;;;0.63;0.63;;;6.80;99.90;;;;;;4998986;28;20050;-64
2023/04/08 00:37:33;;;;;;;0.35;0.35;;;6.70;99.90;;;;;;5009611;28;20181;-64
2023/04/08 00:39:59;;;;;;;0.17;0.17;;;6.70;99.90;;;;;;5018310;28;20107;-64
2023/04/08 00:42:24;;;;;;;0.10;0.10;;;6.70;99.90;;;;;;4998337;28;20791;-64
2023/04/08 00:44:50;;;;;;;0.10;0.10;;;6.70;99.90;;;;;;5008408;28;20045;-65
2023/04/08 00:47:16;;;;;;;0.32;0.32;;;6.70;99.90;;;;;;5009970;28;20104;-64
2023/04/08 00:49:42;;;;;;;0.30;0.30;;;6.70;99.90;;;;;;5003944;28;20136;-64
2023/04/08 00:52:17;;;;;;;0.10;0.10;;;6.70;99.90;;;;;;5043686;27;20442;-64
2023/04/08 00:54:43;;;;;;;0.15;0.15;;;6.60;99.90;;;;;;5034697;28;20092;-64
2023/04/08 00:57:08;;;;;;;3.20;0.85;;;6.60;99.90;;;;;;5030735;28;20049;-64
2023/04/08 00:59:37;;;;;;;0.40;0.40;;;6.60;99.90;;;;;;5027551;28;20144;-64
2023/04/08 01:02:25;;;;;;;0.10;0.10;;;6.60;99.90;;;;;;5026701;28;20042;-64
2023/04/08 01:05:13;;;;;;;0.25;0.25;;;6.50;99.90;;;;;;5031469;28;20049;-65
2023/04/08 01:08:00;;;;;;;0.10;0.10;;;6.50;99.90;;;;;;5027820;28;20557;-65
2023/04/08 01:10:29;;;;;;;1.05;0.75;;;6.50;99.90;;;;;;5029191;28;20124;-64
2023/04/08 01:13:03;;;;;;;0.75;0.75;;;6.50;99.90;;;;;;5026408;28;20041;-64
2023/04/08 01:15:30;;;;;;;0.10;0.10;;;6.50;99.90;;;;;;5028771;28;20045;-64
2023/04/08 01:17:57;;;;;;;0.63;0.63;;;6.40;99.90;;;;;;5031369;28;20175;-64
2023/04/08 01:20:24;;;;;;;0.10;0.10;;;6.40;99.90;;;;;;5043152;28;20496;-64
2023/04/08 01:23:43;;;;;;;0.35;0.35;;;6.40;99.90;;;;;;5031929;28;20060;-64
2023/04/08 01:26:12;;;;;;;0.10;0.10;;;6.30;99.90;;;;;;5019149;28;20061;-64
2023/04/08 01:28:39;;;;;;;0.10;0.10;;;6.40;99.90;;;;;;5025022;28;20076;-64
2023/04/08 01:31:06;;;;;;;0.03;0.03;;;6.30;99.90;;;;;;5044007;28;20466;-64
2023/04/08 01:33:32;;;;;;;0.28;0.28;;;6.30;99.90;;;;;;5025981;28;20088;-64
2023/04/08 01:35:59;;;;;;;0.10;0.10;;;6.20;99.90;;;;;;5027048;28;20041;-64
2023/04/08 01:38:26;;;;;;;0.10;0.10;;;6.20;99.90;;;;;;5026304;28;20050;-64
2023/04/08 01:40:53;;;;;;;0.10;0.10;;;6.10;99.90;;;;;;5035080;28;20116;-64
2023/04/08 01:43:19;;;;;;;0.10;0.10;;;6.20;99.90;;;;;;5032895;28;20406;-64
2023/04/08 01:45:47;;;;;;;0.10;0.10;;;6.10;99.90;;;;;;5026083;28;20378;-64
2023/04/08 01:48:14;;;;;;;0.25;0.25;;;6.10;99.90;;;;;;5026575;28;20795;-64
2023/04/08 01:50:44;;;;;;;0.10;0.10;;;6.10;99.90;;;;;;5036759;28;20066;-65
2023/04/08 01:53:10;;;;;;;0.85;0.85;;;6.10;99.90;;;;;;5026938;28;20041;-64
2023/04/08 01:55:38;;;;;;;0.22;0.22;;;6.10;99.90;;;;;;5026415;28;20033;-64
2023/04/08 01:58:06;;;;;;;0.57;0.57;;;6.10;99.90;;;;;;5025483;28;20073;-64
2023/04/08 02:00:34;;;;;;;0.10;0.10;;;6.00;99.90;;;;;;5032755;28;20072;-64
2023/04/08 02:03:01;;;;;;;0.20;0.20;;;6.00;99.90;;;;;;5022269;28;20082;-64
2023/04/08 02:05:26;;;;;;;0.10;0.10;;;6.00;99.90;;;;;;5012951;28;20622;-64
2023/04/08 02:07:52;;;;;;;0.43;0.43;;;6.00;99.90;;;;;;5020238;28;20057;-64
2023/04/08 02:10:18;;;;;;;0.10;0.10;;;6.00;99.90;;;;;;5025810;28;20046;-64
2023/04/08 02:12:44;;;;;;;1.65;1.55;;;6.00;99.90;;;;;;5011586;28;20050;-64
2023/04/08 02:15:11;;;;;;;0.45;0.45;;;6.00;99.90;;;;;;5012683;28;20045;-64
2023/04/08 02:17:51;;;;;;;0.40;0.35;;;5.90;99.90;;;;;;5012718;28;20543;-64
2023/04/08 02:20:19;;;;;;;0.10;0.10;;;6.00;99.90;;;;;;5011100;28;20038;-64
2023/04/08 02:23:08;;;;;;;0.20;0.20;;;5.90;99.90;;;;;;5012376;28;20077;-64
2023/04/08 02:25:36;;;;;;;0.10;0.10;;;5.90;99.90;;;;;;5017600;28;20049;-64
2023/04/08 02:28:08;;;;;;;0.85;0.85;;;6.00;99.90;;;;;;5012340;28;20509;-64
2023/04/08 02:30:35;;;;;;;0.10;0.10;;;5.90;99.90;;;;;;5031690;28;20471;-64
2023/04/08 02:33:04;;;;;;;0.90;0.90;;;5.80;99.90;;;;;;5021769;28;20084;-64
2023/04/08 02:35:30;;;;;;;0.30;0.30;;;5.80;99.90;;;;;;5015094;28;20509;-64
2023/04/08 02:37:55;;;;;;;0.45;0.45;;;5.80;99.90;;;;;;5012847;28;20065;-64
2023/04/08 02:40:26;;;;;;;0.75;0.75;;;5.80;99.90;;;;;;5018724;28;20083;-64
2023/04/08 02:42:53;;;;;;;0.28;0.28;;;5.80;99.90;;;;;;5021394;28;20038;-64
2023/04/08 02:45:20;;;;;;;0.40;0.40;;;5.80;99.90;;;;;;5012045;28;20127;-64
2023/04/08 02:47:46;;;;;;;0.28;0.25;;;5.70;99.90;;;;;;5010218;28;20712;-64
2023/04/08 02:50:11;;;;;;;0.20;0.20;;;5.80;99.90;;;;;;5018419;28;20046;-64
2023/04/08 02:52:37;;;;;;;0.10;0.10;;;5.80;99.90;;;;;;5011553;28;20042;-64
2023/04/08 02:55:05;;;;;;;1.60;1.50;;;5.70;99.90;;;;;;5015880;28;20045;-64
2023/04/08 02:57:31;;;;;;;2.15;0.82;;;5.70;99.90;;;;;;5011526;28;20082;-64
2023/04/08 02:59:56;;;;;;;0.38;0.38;;;5.70;99.90;;;;;;5015733;28;20080;-64
2023/04/08 03:02:22;;;;;;;0.10;0.10;;;5.70;99.90;;;;;;5009885;28;20383;-64
2023/04/08 03:04:48;;;;;;;0.20;0.20;;;5.70;99.90;;;;;;5015606;28;20042;-64
2023/04/08 03:07:13;;;;;;;1.08;1.02;;;5.70;99.90;;;;;;5014623;28;20553;-64
2023/04/08 03:09:39;;;;;;;0.10;0.10;;;5.70;99.90;;;;;;5011599;28;20070;-64
2023/04/08 03:12:05;;;;;;;0.63;0.63;;;5.70;99.90;;;;;;5037017;28;20095;-64
2023/04/08 03:14:30;;;;;;;1.35;1.25;;;5.60;99.90;;;;;;5010891;28;20113;-64
2023/04/08 03:16:56;;;;;;;0.47;0.47;;;5.60;99.90;;;;;;5011113;28;20053;-64
2023/04/08 03:19:21;;;;;;;0.15;0.15;;;5.60;99.90;;;;;;5010669;28;20034;-64
2023/04/08 03:21:47;;;;;;;0.30;0.30;;;5.60;99.90;;;;;;5029336;28;20070;-64
2023/04/08 03:24:13;;;;;;;0.20;0.20;;;5.60;99.90;;;;;;5011040;28;20061;-64
2023/04/08 03:26:38;;;;;;;0.10;0.10;;;5.50;99.90;;;;;;5010569;28;20382;-64
2023/04/08 03:29:05;;;;;;;0.43;0.43;;;5.50;99.90;;;;;;5018237;28;20049;-64
2023/04/08 03:31:31;;;;;;;1.30;1.20;;;5.50;99.90;;;;;;5023883;28;20046;-64
2023/04/08 03:33:57;;;;;;;0.30;0.30;;;5.40;99.90;;;;;;5015412;28;20048;-64
2023/04/08 03:36:22;;;;;;;0.20;0.20;;;5.50;99.90;;;;;;5010776;28;20401;-64
2023/04/08 03:38:48;;;;;;;2.17;1.38;;;5.50;99.90;;;;;;5010720;28;20104;-64
2023/04/08 03:41:13;;;;;;;0.32;0.32;;;5.40;99.90;;;;;;5023219;28;20037;-64
2023/04/08 03:43:39;;;;;;;0.45;0.45;;;5.40;99.90;;;;;;5014075;28;20448;-64
2023/04/08 03:46:05;;;;;;;0.50;0.50;;;5.40;99.90;;;;;;5010612;28;20113;-63
2023/04/08 03:48:31;;;;;;;0.17;0.17;;;5.40;99.90;;;;;;5015454;28;20037;-64
2023/04/08 03:50:56;;;;;;;0.10;0.10;;;5.40;99.90;;;;;;5015535;28;20050;-64
2023/04/08 03:53:22;;;;;;;0.13;0.13;;;5.40;99.90;;;;;;5011047;28;20046;-64
2023/04/08 03:55:49;;;;;;;0.68;0.68;;;5.40;99.90;;;;;;5021146;28;20096;-64
2023/04/08 03:58:15;;;;;;;0.85;0.85;;;5.40;99.90;;;;;;5016152;28;20046;-64
2023/04/08 04:00:40;;;;;;;1.83;0.88;;;5.40;99.90;;;;;;5011022;28;20474;-64
2023/04/08 04:03:07;;;;;;;0.47;0.47;;;5.40;99.90;;;;;;5016083;28;20046;-64
2023/04/08 04:05:33;;;;;;;2.88;2.58;;;5.40;99.90;;;;;;5010144;28;20037;-64
2023/04/08 04:07:58;;;;;;;0.73;0.73;;;5.40;99.90;;;;;;5021809;28;20477;-64
2023/04/08 04:10:24;;;;;;;0.70;0.70;;;5.30;99.90;;;;;;5010267;28;20099;-64
2023/04/08 04:12:50;;;;;;;0.80;0.80;;;5.30;99.90;;;;;;5009558;28;20045;-64
2023/04/08 04:15:15;;;;;;;0.88;0.88;;;5.30;99.90;;;;;;5009442;28;20049;-64
2023/04/08 04:17:41;;;;;;;0.47;0.47;;;5.20;99.90;;;;;;5016689;28;20520;-64
2023/04/08 04:20:07;;;;;;;2.05;1.83;;;5.30;99.90;;;;;;5011485;28;20046;-63
2023/04/08 04:22:32;;;;;;;0.65;0.65;;;5.30;99.90;;;;;;5009981;28;20050;-64
2023/04/08 04:24:58;;;;;;;0.40;0.40;;;5.20;99.90;;;;;;5011260;28;20042;-64
2023/04/08 04:27:23;;;;;;;0.40;0.40;;;5.10;99.90;;;;;;5009194;28;20128;-64
2023/04/08 04:29:49;;;;;;;1.05;0.82;;;5.10;99.90;;;;;;5017990;28;20887;-64
2023/04/08 04:32:15;;;;;;;0.57;0.57;;;5.10;99.90;;;;;;5014400;28;20043;-64
2023/04/08 04:34:40;;;;;;;0.47;0.47;;;5.20;99.90;;;;;;5009793;28;20062;-64
2023/04/08 04:37:06;;;;;;;0.70;0.70;;;5.10;99.90;;;;;;5019102;28;20061;-64
2023/04/08 04:39:31;;;;;;;0.10;0.10;;;5.10;99.90;;;;;;5019794;28;20767;-64
2023/04/08 04:41:57;;;;;;;0.95;0.95;;;5.10;99.90;;;;;;5013239;28;20064;-64
2023/04/08 04:44:23;;;;;;;0.60;0.55;;;5.10;99.90;;;;;;5011799;28;20077;-64
2023/04/08 04:46:48;;;;;;;0.50;0.50;;;5.10;99.90;;;;;;5009674;28;20394;-64
2023/04/08 04:49:14;;;;;;;0.57;0.57;;;5.10;99.90;;;;;;5022218;28;20129;-64
2023/04/08 04:51:39;;;;;;;0.35;0.35;;;5.10;99.90;;;;;;5009668;28;20054;-64
2023/04/08 04:54:05;;;;;;;0.10;0.10;;;5.10;99.90;;;;;;5010002;28;20053;-64
2023/04/08 04:56:30;;;;;;;1.60;0.45;;;5.10;99.90;;;;;;5013954;28;20049;-64
2023/04/08 04:58:56;;;;;;;0.73;0.73;;;5.10;99.90;;;;;;5020283;28;20033;-65
2023/04/08 05:01:22;;;;;;;2.58;2.38;;;5.20;99.90;;;;;;5009703;28;20034;-64
2023/04/08 05:03:47;;;;;;;0.57;0.57;;;5.20;99.90;;;;;;5014720;28;20034;-64
2023/04/08 05:06:13;;;;;;;0.65;0.63;;;5.20;99.90;;;;;;5018473;28;20050;-64
2023/04/08 05:08:38;;;;;;;0.40;0.40;;;5.20;99.90;;;;;;5009408;28;20558;-64
2023/04/08 05:11:09;;;;;;;1.67;1.58;;;5.20;99.90;;;;;;5010454;28;20053;-65
2023/04/08 05:13:34;;;;;;;0.10;0.10;;;5.20;99.90;;;;;;5015520;28;20038;-65
2023/04/08 05:16:00;;;;;;;0.65;0.65;;;5.20;99.90;;;;;;5016150;28;20057;-64
2023/04/08 05:18:26;;;;;;;1.55;1.45;;;5.20;99.90;;;;;;5013173;28;20068;-64
2023/04/08 05:20:51;;;;;;;1.08;1.08;;;5.20;99.90;;;;;;5010005;28;20046;-64
2023/04/08 05:23:17;;;;;;;2.08;1.98;;;5.20;99.90;;;;;;5014096;28;20096;-65
2023/04/08 05:25:43;;;;;;;0.25;0.25;;;5.30;99.90;;;;;;5017097;28;20125;-64
2023/04/08 05:28:08;;;;;;;0.40;0.40;;;5.20;99.90;;;;;;5020156;28;20439;-64
2023/04/08 05:30:34;;;;;;;0.60;0.60;;;5.30;99.90;;;;;;5021055;28;20482;-64
2023/04/08 05:33:00;;;;;;;5.07;1.33;;;5.40;99.90;;;;;;5009901;28;20049;-65
2023/04/08 05:35:26;;;;;;;0.40;0.40;;;5.40;99.90;;;;;;5008902;28;20064;-64
2023/04/08 05:37:52;;;;;;;2.38;0.88;;;5.40;99.90;;;;;;5015215;28;20496;-64
2023/04/08 05:40:17;;;;;;;1.05;0.98;;;5.40;99.90;;;;;;5027207;28;20037;-64
2023/04/08 05:42:43;;;;;;;2.90;2.67;;;5.40;99.90;;;;;;5018094;28;20116;-64
2023/04/08 05:45:10;;;;;;;0.30;0.30;;;5.40;99.90;;;;;;5018679;28;20045;-64
2023/04/08 05:47:35;;;;;;;0.65;0.65;;;5.40;99.90;;;;;;5017964;28;20050;-64
2023/04/08 05:50:01;;;;;;;0.95;0.95;;;5.50;99.90;;;;;;5026897;28;20033;-64
2023/04/08 05:52:26;;;;;;;2.05;1.95;;;5.50;99.90;;;;;;5013116;28;20060;-64
2023/04/08 05:54:52;;;;;;;0.52;0.52;;;5.50;99.90;;;;;;5017288;28;20057;-65
2023/04/08 05:57:18;;;;;;;0.68;0.68;;;5.60;99.90;;;;;;5016979;28;20041;-64
2023/04/08 05:59:44;;;;;;;1.13;1.13;;;5.60;99.90;;;;;;5023593;28;20045;-64
2023/04/08 06:02:09;;;;;;;0.50;0.50;;;5.60;99.90;;;;;;5020202;28;20205;-64
2023/04/08 06:04:35;;;;;;;0.25;0.25;;;5.60;99.90;;;;;;5012243;28;20049;-64
2023/04/08 06:07:01;;;;;;;3.42;0.65;;;5.70;99.90;;;;;;5014012;28;20038;-65
2023/04/08 06:09:27;;;;;;;2.53;2.08;;;5.70;99.90;;;;;;5017399;28;20125;-64
2023/04/08 06:11:53;;;;;;;0.75;0.75;;;5.80;99.90;;;;;;5011786;28;20124;-64
2023/04/08 06:14:19;;;;;;;2.03;1.92;;;5.80;99.90;;;;;;5013350;28;20073;-64
2023/04/08 06:16:45;;;;;;;0.30;0.30;;;5.90;99.90;;;;;;5013948;28;20041;-64
2023/04/08 06:19:11;;;;;;;0.85;0.73;;;5.90;99.90;;;;;;5037254;28;20115;-64
2023/04/08 06:21:36;;;;;;;0.73;0.50;;;5.90;99.90;;;;;;5018548;28;20053;-64
2023/04/08 06:24:02;;;;;;;0.75;0.75;;;5.90;99.90;;;;;;5011830;28;20041;-64
2023/04/08 06:26:27;;;;;;;0.22;0.22;;;6.00;99.90;;;;;;5011909;28;20481;-64
2023/04/08 06:28:53;;;;;;;0.40;0.40;;;6.10;99.90;;;;;;5022343;28;20049;-64
2023/04/08 06:31:19;;;;;;;0.10;0.10;;;6.00;99.90;;;;;;5018651;28;20121;-64
2023/04/08 06:33:44;;;;;;;1.45;1.33;;;6.20;99.90;;;;;;5022657;28;20037;-65
2023/04/08 06:36:12;;;;;;;0.90;0.90;;;6.20;99.90;;;;;;5011227;28;20157;-65
2023/04/08 06:38:37;;;;;;;0.57;0.57;;;6.20;99.90;;;;;;5023882;28;20045;-64
2023/04/08 06:41:04;;;;;;;2.40;1.05;;;6.30;99.90;;;;;;5011119;28;20052;-65
2023/04/08 06:43:30;;;;;;;7.90;3.45;;;6.40;99.90;;;;;;5012850;28;20419;-65
2023/04/08 06:45:56;;;;;;;0.47;0.47;;;6.40;99.90;;;;;;5019081;28;20037;-65
2023/04/08 06:48:27;;;;;;;0.10;0.10;;;6.40;99.90;;;;;;5024162;28;20045;-65
2023/04/08 06:50:53;;;;;;;0.30;0.30;;;6.40;99.90;;;;;;5019009;28;20065;-65
2023/04/08 06:53:19;;;;;;;0.80;0.80;;;6.40;99.90;;;;;;5011502;28;20077;-64
2023/04/08 06:55:45;;;;;;;0.40;0.40;;;6.40;99.90;;;;;;5012207;28;20034;-65
2023/04/08 06:58:10;;;;;;;0.50;0.50;;;6.50;99.90;;;;;;5014578;28;20055;-65
2023/04/08 07:00:36;;;;;;;1.42;1.33;;;6.50;99.90;;;;;;5014761;28;20030;-65
2023/04/08 07:03:02;;;;;;;0.32;0.32;;;6.50;99.90;;;;;;5013445;28;20077;-65
2023/04/08 07:05:28;;;;;;;0.65;0.65;;;6.60;99.90;;;;;;5011865;28;20422;-64
2023/04/08 07:07:53;;;;;;;0.10;0.10;;;6.60;99.90;;;;;;5011773;28;20045;-64
2023/04/08 07:10:19;;;;;;;5.38;1.33;;;6.70;99.90;;;;;;5013839;28;20049;-65
2023/04/08 07:12:44;;;;;;;0.77;0.77;;;6.70;99.90;;;;;;5011459;28;20383;-64
2023/04/08 07:15:10;;;;;;;0.40;0.40;;;6.80;99.90;;;;;;5043575;28;20065;-64
2023/04/08 07:17:36;;;;;;;0.80;0.80;;;6.90;99.90;;;;;;5012188;28;20057;-65
2023/04/08 07:20:01;;;;;;;0.55;0.50;;;7.00;99.90;;;;;;5041324;28;20048;-65
2023/04/08 07:22:27;;;;;;;0.28;0.28;;;7.10;99.90;;;;;;5013686;28;20056;-65
2023/04/08 07:24:52;;;;;;;0.28;0.28;;;7.20;99.90;;;;;;5011555;28;20037;-65
2023/04/08 07:27:18;;;;;;;0.50;0.50;;;7.30;99.90;;;;;;5022153;28;20115;-65
2023/04/08 07:29:43;;;;;;;0.10;0.10;;;7.40;99.90;;;;;;5018130;28;20041;-65
2023/04/08 07:32:09;;;;;;;0.95;0.60;;;7.50;99.90;;;;;;5011868;28;20404;-65
2023/04/08 07:34:36;;;;;;;3.17;1.48;;;7.60;99.90;;;;;;5011188;28;20046;-64
2023/04/08 07:37:02;;;;;;;0.25;0.25;;;7.80;99.90;;;;;;5014870;28;20204;-65
2023/04/08 07:39:27;;;;;;;0.63;0.63;;;7.80;99.90;;;;;;5018919;28;20128;-64
2023/04/08 07:41:53;;;;;;;0.30;0.20;;;7.90;99.90;;;;;;5017705;28;20531;-64
2023/04/08 07:44:18;;;;;;;0.95;0.90;;;7.90;99.90;;;;;;5018282;28;20052;-64
2023/04/08 07:46:45;;;;;;;0.10;0.10;;;7.90;99.90;;;;;;5014190;28;20045;-64
2023/04/08 07:49:11;;;;;;;1.52;1.42;;;7.90;99.90;;;;;;5013978;28;20041;-64
2023/04/08 07:51:37;;;;;;;0.93;0.90;;;7.90;99.90;;;;;;5008634;28;20058;-64
2023/04/08 07:54:02;;;;;;;0.52;0.35;;;8.00;99.90;;;;;;5015185;28;20048;-63
2023/04/08 07:56:28;;;;;;;0.77;0.77;;;8.00;99.90;;;;;;5017741;28;20037;-63
2023/04/08 07:58:54;;;;;;;0.22;0.22;;;8.10;99.90;;;;;;5021192;28;20053;-64
2023/04/08 08:01:21;;;;;;;0.68;0.68;;;8.20;99.90;;;;;;5009527;28;20140;-65
2023/04/08 08:03:47;;;;;;;0.93;0.80;;;8.30;99.90;;;;;;5010283;28;20042;-65
2023/04/08 08:06:14;;;;;;;0.65;0.63;;;8.40;99.90;;;;;;5026825;28;20492;-65
2023/04/08 08:08:39;;;;;;;0.57;0.57;;;8.50;99.90;;;;;;5019893;28;20260;-65
2023/04/08 08:11:05;;;;;;;1.02;1.00;;;8.50;99.90;;;;;;5024868;28;20400;-65
2023/04/08 08:13:32;;;;;;;2.30;1.30;;;8.60;99.90;;;;;;5013802;28;20049;-65
2023/04/08 08:15:57;;;;;;;1.10;1.10;;;8.60;99.90;;;;;;5033495;28;20033;-65
2023/04/08 08:18:23;;;;;;;1.95;0.73;;;8.70;99.90;;;;;;5009733;28;20048;-65
2023/04/08 08:20:48;;;;;;;0.15;0.15;;;8.70;99.90;;;;;;5010592;28;20088;-65
2023/04/08 08:23:14;;;;;;;0.47;0.47;;;8.70;99.90;;;;;;5023587;28;20046;-65
2023/04/08 08:25:40;;;;;;;0.22;0.22;;;8.70;99.90;;;;;;5019034;28;20133;-65
2023/04/08 08:28:05;;;;;;;0.43;0.43;;;8.60;99.90;;;;;;5010150;28;20044;-65
2023/04/08 08:30:31;;;;;;;2.47;1.48;;;8.60;99.90;;;;;;5013391;28;20049;-65
2023/04/08 08:32:58;;;;;;;0.20;0.20;;;8.60;99.90;;;;;;5009714;28;20121;-65
2023/04/08 08:35:24;;;;;;;0.35;0.35;;;8.60;99.90;;;;;;5017309;28;20497;-65
2023/04/08 08:37:50;;;;;;;0.40;0.40;;;8.70;99.90;;;;;;5010902;28;20072;-66
2023/04/08 08:40:16;;;;;;;0.40;0.40;;;8.70;99.90;;;;;;5009094;28;20038;-66
2023/04/08 08:42:48;;;;;;;0.10;0.10;;;8.80;99.90;;;;;;5021201;28;20444;-66
2023/04/08 08:45:14;;;;;;;0.52;0.52;;;9.10;99.90;;;;;;5028852;28;20124;-66
2023/04/08 08:47:40;;;;;;;0.38;0.38;;;9.10;99.90;;;;;;5016782;28;20079;-66
2023/04/08 08:50:06;;;;;;;2.63;0.50;;;9.30;99.90;;;;;;5009647;28;20037;-66
2023/04/08 08:52:31;;;;;;;0.25;0.25;;;9.30;99.90;;;;;;5015924;28;20050;-66
2023/04/08 08:54:58;;;;;;;0.30;0.30;;;9.50;99.90;;;;;;5027101;28;20173;-66
2023/04/08 08:57:24;;;;;;;0.38;0.38;;;9.50;99.90;;;;;;5015017;28;20041;-66
2023/04/08 08:59:50;;;;;;;1.95;1.05;;;9.50;99.90;;;;;;5008814;28;20885;-66
2023/04/08 09:02:30;;;;;;;0.63;0.55;;;9.50;99.90;;;;;;5009640;28;20134;-66
2023/04/08 09:05:01;;;;;;;0.10;0.10;;;9.60;99.90;;;;;;5023153;28;20116;-66
2023/04/08 09:07:28;;;;;;;0.10;0.10;;;9.90;99.90;;;;;;5017171;28;20476;-66
2023/04/08 09:09:56;;;;;;;0.10;0.10;;;10.20;99.90;;;;;;5009747;28;20034;-66
2023/04/08 09:12:22;;;;;;;0.10;0.10;;;10.50;99.90;;;;;;5010893;28;20132;-66
2023/04/08 09:14:48;;;;;;;0.10;0.10;;;11.00;99.90;;;;;;5013049;28;20053;-64
2023/04/08 09:17:15;;;;;;;0.50;0.50;;;11.00;99.90;;;;;;5015104;28;20034;-64
2023/04/08 09:20:10;;;;;;;0.10;0.10;;;10.90;99.90;;;;;;5014017;28;20060;-64
2023/04/08 09:22:56;;;;;;;0.32;0.32;;;10.80;99.90;;;;;;5006632;28;20049;-65
2023/04/08 09:25:26;;;;;;;0.10;0.10;;;10.70;99.90;;;;;;5023429;28;20053;-64
2023/04/08 09:27:53;;;;;;;0.08;0.08;;;10.80;99.90;;;;;;5025348;28;20045;-64
2023/04/08 09:30:20;;;;;;;0.28;0.28;;;10.80;99.90;;;;;;5013556;28;20485;-64
2023/04/08 09:32:56;;;;;;;0.10;0.10;;;10.60;99.90;;;;;;5016435;28;20049;-65
2023/04/08 09:35:23;;;;;;;0.30;0.30;;;10.40;99.90;;;;;;5012354;28;20489;-65
2023/04/08 09:37:49;;;;;;;0.10;0.10;;;10.30;99.90;;;;;;5018455;28;20099;-64
2023/04/08 09:40:15;;;;;;;0.40;0.40;;;10.20;99.90;;;;;;5015297;28;20096;-64
2023/04/08 09:42:49;;;;;;;1.33;1.00;;;10.20;99.90;;;;;;5019182;28;20037;-64
2023/04/08 09:45:16;;;;;;;0.60;0.30;;;10.20;99.90;;;;;;5013247;28;20053;-64
2023/04/08 09:47:59;;;;;;;2.97;1.48;;;10.20;99.90;;;;;;5013380;28;20046;-64
2023/04/08 09:50:31;;;;;;;0.20;0.20;;;10.60;99.90;;;;;;5017308;28;20386;-64
2023/04/08 09:53:08;;;;;;;0.22;0.22;;;10.70;99.90;;;;;;5013193;28;20038;-65
2023/04/08 09:55:36;;;;;;;0.55;0.55;;;10.60;99.90;;;;;;5018832;28;20112;-64
2023/04/08 09:58:10;;;;;;;0.03;0.03;;;10.60;99.90;;;;;;5012977;28;20132;-64
2023/04/08 10:00:45;;;;;;;1.48;0.82;;;10.40;99.90;;;;;;5013935;28;20640;-64
2023/04/08 10:03:39;;;;;;;0.28;0.28;;;10.20;99.90;;;;;;5014173;28;20041;-64
2023/04/08 10:06:07;;;;;;;0.35;0.35;;;10.10;99.90;;;;;;5020470;28;20828;-63
2023/04/08 10:08:34;;;;;;;0.20;0.20;;;10.10;99.90;;;;;;5019800;28;20036;-63
2023/04/08 10:10:59;;;;;;;0.13;0.13;;;10.00;99.90;;;;;;5010819;28;20549;-62
2023/04/08 10:13:27;;;;;;;0.98;0.98;;;10.00;99.90;;;;;;5014846;28;20065;-62
2023/04/08 10:16:21;;;;;;;0.85;0.85;;;10.00;99.90;;;;;;5026961;28;20481;-62
2023/04/08 10:18:49;;;;;;;0.68;0.55;;;9.90;99.90;;;;;;5016371;28;20033;-64
2023/04/08 10:21:38;;;;;;;0.30;0.30;;;9.90;99.90;;;;;;5018552;28;20056;-64
2023/04/08 10:24:09;;;;;;;0.75;0.75;;;9.90;99.90;;;;;;5015549;28;20042;-64
2023/04/08 10:26:45;;;;;;;0.75;0.75;;;9.80;99.90;;;;;;5017389;28;20116;-63
2023/04/08 10:29:16;;;;;;;0.47;0.47;;;9.80;99.90;;;;;;5015171;28;20092;-63
2023/04/08 10:31:51;;;;;;;0.30;0.30;;;9.80;99.90;;;;;;5014862;28;20089;-64
2023/04/08 10:34:20;;;;;;;1.65;1.35;;;9.80;99.90;;;;;;5015309;28;20866;-64
2023/04/08 10:36:46;;;;;;;0.10;0.10;;;9.80;99.90;;;;;;5012374;28;20042;-64
2023/04/08 10:39:13;;;;;;;2.17;0.52;;;9.90;99.90;;;;;;5012628;28;20053;-65
2023/04/08 10:41:44;;;;;;;1.27;1.17;;;9.90;99.90;;;;;;5017212;28;20064;-65
2023/04/08 10:44:25;;;;;;;0.40;0.40;;;9.80;99.90;;;;;;5051003;28;20046;-66
2023/04/08 10:46:52;;;;;;;0.20;0.20;;;9.90;99.90;;;;;;5017073;28;20041;-65
2023/04/08 10:49:18;;;;;;;2.35;1.58;;;9.80;99.90;;;;;;5023201;28;20106;-65
2023/04/08 10:51:45;;;;;;;0.52;0.52;;;9.90;99.90;;;;;;5017313;28;20058;-65
2023/04/08 10:54:11;;;;;;;0.20;0.20;;;9.90;99.90;;;;;;5031384;28;20054;-66
2023/04/08 10:56:51;;;;;;;0.20;0.20;;;10.00;99.90;;;;;;5017744;28;20041;-65
2023/04/08 10:59:27;;;;;;;0.17;0.17;;;10.00;99.90;;;;;;5014656;28;20041;-65
2023/04/08 11:01:54;;;;;;;3.35;0.93;;;10.00;99.90;;;;;;5017785;28;20107;-65
2023/04/08 11:04:22;;;;;;;1.38;0.85;;;10.00;99.90;;;;;;5013140;28;20038;-66
2023/04/08 11:06:48;;;;;;;0.10;0.10;;;10.00;99.90;;;;;;5011852;28;20092;-66
2023/04/08 11:09:15;;;;;;;6.30;1.65;;;10.00;99.90;;;;;;5020435;28;20042;-66
2023/04/08 11:11:45;;;;;;;0.10;0.10;;;10.00;99.90;;;;;;5010948;28;20050;-66
2023/04/08 11:14:11;;;;;;;0.47;0.47;;;10.10;99.90;;;;;;5029566;28;20040;-65
2023/04/08 11:16:38;;;;;;;0.25;0.25;;;10.10;99.90;;;;;;5016178;28;20493;-66
2023/04/08 11:19:05;;;;;;;6.70;2.00;;;10.10;99.90;;;;;;5012686;28;20099;-66
2023/04/08 11:21:34;;;;;;;2.38;2.28;;;10.10;99.90;;;;;;5011397;28;20176;-65
2023/04/08 11:23:59;;;;;;;1.25;1.15;;;10.00;99.90;;;;;;5017558;28;20057;-66
2023/04/08 11:26:26;;;;;;;0.10;0.10;;;10.00;99.90;;;;;;5013824;28;20119;-66
2023/04/08 11:28:53;;;;;;;0.10;0.10;;;10.10;99.90;;;;;;5012350;28;20034;-66
2023/04/08 11:31:20;;;;;;;0.82;0.82;;;10.10;99.90;;;;;;5011115;28;20082;-66
2023/04/08 11:33:51;;;;;;;0.28;0.28;;;10.10;99.90;;;;;;5019593;28;20041;-65
2023/04/08 11:36:17;;;;;;;0.52;0.43;;;10.30;99.90;;;;;;5010259;28;20125;-66
2023/04/08 11:38:43;;;;;;;0.25;0.25;;;10.20;99.90;;;;;;5024286;28;20175;-66
2023/04/08 11:41:10;;;;;;;0.20;0.20;;;10.20;99.90;;;;;;5020513;28;20081;-65
2023/04/08 11:43:36;;;;;;;0.65;0.35;;;10.10;99.90;;;;;;5011403;28;20628;-66
2023/04/08 11:46:12;;;;;;;2.70;0.60;;;10.10;99.90;;;;;;5011119;28;20045;-66
2023/04/08 11:48:40;;;;;;;0.15;0.15;;;10.20;99.90;;;;;;5019455;28;20046;-66
2023/04/08 11:51:11;;;;;;;1.20;0.65;;;10.20;99.90;;;;;;5019222;28;20058;-64
2023/04/08 11:53:37;;;;;;;1.90;0.30;;;10.20;99.90;;;;;;5028945;28;20128;-65
2023/04/08 11:56:20;;;;;;;0.88;0.85;;;10.30;99.90;;;;;;5045560;28;20132;-66
2023/04/08 11:58:46;;;;;;;0.57;0.57;;;10.30;99.90;;;;;;5010414;28;20038;-66
2023/04/08 12:01:12;;;;;;;0.90;0.90;;;10.30;99.90;;;;;;5020584;28;20503;-65
2023/04/08 12:03:38;;;;;;;1.85;0.95;;;10.40;99.90;;;;;;5019899;28;20370;-66
2023/04/08 12:06:05;;;;;;;0.30;0.30;;;10.40;99.90;;;;;;5016735;28;20048;-65
2023/04/08 12:08:32;;;;;;;0.40;0.40;;;10.50;99.90;;;;;;5019140;28;20049;-66
2023/04/08 12:10:57;;;;;;;0.40;0.40;;;10.50;99.90;;;;;;5020469;28;20094;-66
2023/04/08 12:13:23;;;;;;;2.90;0.60;;;10.50;99.90;;;;;;5025379;28;20125;-65
2023/04/08 12:15:48;;;;;;;0.75;0.75;;;10.60;99.90;;;;;;5013224;28;20080;-65
2023/04/08 12:18:15;;;;;;;1.55;1.45;;;10.60;99.90;;;;;;5017632;28;20091;-66
2023/04/08 12:20:40;;;;;;;0.63;0.63;;;10.60;99.90;;;;;;5026403;28;20048;-66
2023/04/08 12:23:06;;;;;;;0.38;0.38;;;10.70;99.90;;;;;;5013103;28;20413;-65
2023/04/08 12:25:32;;;;;;;1.85;1.42;;;10.60;99.90;;;;;;5010784;28;20045;-66
2023/04/08 12:27:58;;;;;;;0.50;0.50;;;10.60;99.90;;;;;;5012402;28;20525;-66
2023/04/08 12:30:23;;;;;;;0.73;0.50;;;10.60;99.90;;;;;;5017997;28;20045;-65
2023/04/08 12:32:49;;;;;;;0.30;0.30;;;10.60;99.90;;;;;;5016113;28;20051;-66
2023/04/08 12:35:15;;;;;;;0.57;0.57;;;10.60;99.90;;;;;;5026397;28;20042;-66
2023/04/08 12:37:40;;;;;;;0.30;0.30;;;10.50;99.90;;;;;;5011321;28;20540;-64
2023/04/08 12:40:06;;;;;;;1.17;1.17;;;10.60;99.90;;;;;;5022570;28;20124;-66
2023/04/08 12:42:33;;;;;;;2.10;1.65;;;10.60;99.90;;;;;;5010692;28;20124;-66
2023/04/08 12:44:59;;;;;;;0.30;0.30;;;10.70;99.90;;;;;;5016406;28;20047;-66
2023/04/08 12:47:25;;;;;;;1.85;1.75;;;10.60;99.90;;;;;;5020694;28;20042;-66
2023/04/08 12:49:50;;;;;;;0.50;0.50;;;10.60;99.90;;;;;;5017282;28;20400;-66
2023/04/08 12:52:16;;;;;;;1.08;0.82;;;10.60;99.90;;;;;;5010644;28;20041;-64
2023/04/08 12:54:41;;;;;;;0.85;0.85;;;10.60;99.90;;;;;;5008503;28;20042;-64
2023/04/08 12:57:07;;;;;;;0.60;0.60;;;10.60;99.90;;;;;;5016891;28;20452;-64